Time;durP1;ratioP1;P1;durP2;ratioP2;P2;SDS_P1;SDS_P2;PMS_P1;PMS_P2;Temp;Humidity;BMP_temperature;BMP_pressure;BME280_temperature;BME280_humidity;BME280_pressure;Samples;Min_cycle;Max_cycle;Signal;HPM_P1;HPM_P2
2023/11/19 00:01:34;;;;;;;3.83;3.17;;;-2.10;99.90;;;;;;5007592;28;20543;-83
2023/11/19 00:04:04;;;;;;;6.75;3.95;;;-2.10;99.90;;;;;;5047871;28;20137;-84
2023/11/19 00:06:31;;;;;;;5.30;3.55;;;-2.10;99.90;;;;;;5050452;28;20050;-86
2023/11/19 00:08:59;;;;;;;5.07;3.97;;;-2.20;99.90;;;;;;5035411;28;20497;-86
2023/11/19 00:11:27;;;;;;;7.80;4.22;;;-2.20;99.90;;;;;;5046245;28;20038;-84
2023/11/19 00:13:55;;;;;;;13.18;4.75;;;-2.20;99.90;;;;;;5013242;28;20131;-82
2023/11/19 00:16:22;;;;;;;7.35;4.78;;;-2.20;99.90;;;;;;5014478;28;20054;-83
2023/11/19 00:18:49;;;;;;;8.90;5.63;;;-2.20;99.90;;;;;;5012726;28;20411;-83
2023/11/19 00:21:17;;;;;;;6.47;4.45;;;-2.20;99.90;;;;;;5010575;28;20585;-84
2023/11/19 00:23:44;;;;;;;7.70;4.78;;;-2.20;99.90;;;;;;5015432;28;20057;-82
2023/11/19 00:26:11;;;;;;;7.80;5.03;;;-2.20;99.90;;;;;;5021137;28;20065;-83
2023/11/19 00:28:39;;;;;;;8.13;5.70;;;-2.30;99.90;;;;;;5016512;28;20042;-85
2023/11/19 00:31:06;;;;;;;7.03;5.22;;;-2.30;99.90;;;;;;5029846;28;20048;-83
2023/11/19 00:33:34;;;;;;;9.15;5.20;;;-2.30;99.90;;;;;;5034265;28;20096;-83
2023/11/19 00:36:00;;;;;;;6.82;4.85;;;-2.30;99.90;;;;;;5028033;28;20800;-82
2023/11/19 00:38:27;;;;;;;7.35;4.25;;;-2.30;99.90;;;;;;5029048;28;20060;-83
2023/11/19 00:40:54;;;;;;;8.95;3.60;;;-2.30;99.90;;;;;;5025652;28;20144;-82
2023/11/19 00:43:22;;;;;;;7.07;4.07;;;-2.30;99.90;;;;;;5026523;28;20176;-82
2023/11/19 00:45:50;;;;;;;10.23;4.28;;;-2.30;99.90;;;;;;5026179;28;20383;-83
2023/11/19 00:48:17;;;;;;;8.07;4.20;;;-2.40;99.90;;;;;;5034453;28;20112;-83
2023/11/19 00:50:45;;;;;;;6.50;3.67;;;-2.40;99.90;;;;;;5026394;28;20052;-82
2023/11/19 00:53:12;;;;;;;6.18;3.65;;;-2.40;99.90;;;;;;5028050;28;20053;-82
2023/11/19 00:55:39;;;;;;;5.25;3.85;;;-2.40;99.90;;;;;;5010676;28;20064;-83
2023/11/19 00:58:09;;;;;;;5.03;4.47;;;-2.30;99.90;;;;;;5026947;28;20041;-82
2023/11/19 01:00:36;;;;;;;6.53;4.20;;;-2.40;99.90;;;;;;5023605;28;20399;-83
2023/11/19 01:03:03;;;;;;;4.32;3.58;;;-2.40;99.90;;;;;;5029134;28;20038;-83
2023/11/19 01:05:30;;;;;;;7.03;3.63;;;-2.40;99.90;;;;;;5027684;28;20046;-82
2023/11/19 01:07:57;;;;;;;5.38;3.17;;;-2.40;99.90;;;;;;5032904;28;20051;-82
2023/11/19 01:10:25;;;;;;;6.75;3.78;;;-2.50;99.90;;;;;;5023044;28;20109;-83
2023/11/19 01:12:52;;;;;;;6.40;2.95;;;-2.50;99.90;;;;;;5041486;28;20076;-83
2023/11/19 01:15:20;;;;;;;5.97;2.90;;;-2.50;99.90;;;;;;5030021;28;20124;-82
2023/11/19 01:17:47;;;;;;;4.80;3.42;;;-2.50;99.90;;;;;;5027187;28;20049;-82
2023/11/19 01:20:17;;;;;;;3.65;2.70;;;-2.40;99.90;;;;;;5041786;28;20037;-84
2023/11/19 01:22:44;;;;;;;3.10;2.45;;;-2.40;99.90;;;;;;5026114;28;20797;-83
2023/11/19 01:25:11;;;;;;;5.22;2.83;;;-2.40;99.90;;;;;;5030540;28;20057;-83
2023/11/19 01:27:38;;;;;;;3.53;2.75;;;-2.40;99.90;;;;;;5029089;28;20128;-84
2023/11/19 01:30:09;;;;;;;3.70;3.25;;;-2.30;99.90;;;;;;5027312;28;20131;-83
2023/11/19 01:32:36;;;;;;;3.47;3.00;;;-2.30;99.90;;;;;;5012396;28;20041;-83
2023/11/19 01:35:04;;;;;;;3.67;3.20;;;-2.30;99.90;;;;;;4998100;28;20438;-82
2023/11/19 01:37:32;;;;;;;5.85;3.20;;;-2.30;99.90;;;;;;4992533;28;20140;-83
2023/11/19 01:39:59;;;;;;;3.08;2.63;;;-2.30;99.90;;;;;;5036350;28;20466;-82
2023/11/19 01:42:27;;;;;;;3.38;2.83;;;-2.30;99.90;;;;;;5028324;28;20041;-83
2023/11/19 01:45:01;;;;;;;3.97;2.35;;;-2.20;99.90;;;;;;5017761;28;20449;-83
2023/11/19 01:47:30;;;;;;;6.80;4.13;;;-2.20;99.90;;;;;;5004381;28;20463;-82
2023/11/19 01:49:57;;;;;;;4.43;2.88;;;-2.20;99.90;;;;;;5010088;28;20502;-82
2023/11/19 01:52:25;;;;;;;3.22;2.92;;;-2.10;99.90;;;;;;5027019;28;20475;-82
2023/11/19 01:54:54;;;;;;;4.20;3.33;;;-2.10;99.90;;;;;;5030056;28;20064;-83
2023/11/19 01:57:23;;;;;;;4.93;2.75;;;-2.10;99.90;;;;;;4997000;28;20046;-82
2023/11/19 01:59:52;;;;;;;3.72;2.45;;;-2.10;99.90;;;;;;5014657;28;20045;-83
2023/11/19 02:02:22;;;;;;;3.22;2.67;;;-2.10;99.90;;;;;;5024830;28;20072;-83
2023/11/19 02:04:50;;;;;;;2.78;2.30;;;-2.10;99.90;;;;;;5031033;28;20557;-82
2023/11/19 02:07:18;;;;;;;3.33;2.97;;;-2.10;99.90;;;;;;5008097;28;20038;-82
2023/11/19 02:09:45;;;;;;;3.65;3.13;;;-2.10;99.90;;;;;;5011151;28;20051;-83
2023/11/19 02:12:12;;;;;;;5.72;3.80;;;-2.10;99.90;;;;;;5025005;28;20521;-83
2023/11/19 02:14:40;;;;;;;3.53;2.70;;;-2.10;99.90;;;;;;5026916;28;20455;-83
2023/11/19 02:17:24;;;;;;;3.88;3.28;;;-2.00;99.90;;;;;;5026247;28;20068;-82
2023/11/19 02:19:51;;;;;;;3.20;2.70;;;-2.00;99.90;;;;;;4995655;28;20045;-83
2023/11/19 02:22:18;;;;;;;3.67;3.10;;;-2.00;99.90;;;;;;5010146;28;20226;-83
2023/11/19 02:24:49;;;;;;;3.80;2.55;;;-2.00;99.90;;;;;;5028426;28;20522;-83
2023/11/19 02:27:29;;;;;;;6.65;3.05;;;-2.00;99.90;;;;;;5006686;28;20084;-84
2023/11/19 02:29:56;;;;;;;6.43;3.60;;;-1.90;99.90;;;;;;5026986;28;20045;-83
2023/11/19 02:32:27;;;;;;;3.42;2.72;;;-1.90;99.90;;;;;;5014220;28;20038;-84
2023/11/19 02:34:54;;;;;;;3.03;2.75;;;-1.80;99.90;;;;;;5025970;28;20139;-83
2023/11/19 02:37:32;;;;;;;5.13;3.10;;;-1.80;99.90;;;;;;5018233;28;20049;-83
2023/11/19 02:40:09;;;;;;;3.80;2.75;;;-1.80;99.90;;;;;;5014159;28;20506;-83
2023/11/19 02:42:37;;;;;;;2.80;2.50;;;-1.70;99.90;;;;;;5006772;28;20522;-84
2023/11/19 02:45:06;;;;;;;4.07;2.00;;;-1.70;99.90;;;;;;5015654;28;20458;-84
2023/11/19 02:47:34;;;;;;;2.50;2.30;;;-1.70;99.90;;;;;;5026772;28;20687;-83
2023/11/19 02:50:01;;;;;;;4.38;2.70;;;-1.70;99.90;;;;;;5016397;28;20410;-84
2023/11/19 02:52:28;;;;;;;4.97;3.55;;;-1.60;99.90;;;;;;5025072;28;20077;-83
2023/11/19 02:54:56;;;;;;;3.67;2.15;;;-1.60;99.90;;;;;;5015383;28;20052;-83
2023/11/19 02:57:23;;;;;;;4.32;2.97;;;-1.50;99.90;;;;;;5027385;28;20053;-83
2023/11/19 02:59:49;;;;;;;3.72;2.53;;;-1.40;99.90;;;;;;5011331;28;20048;-84
2023/11/19 03:02:17;;;;;;;3.28;2.40;;;-1.30;99.90;;;;;;5014008;28;20034;-83
2023/11/19 03:04:45;;;;;;;3.53;2.30;;;-1.20;99.90;;;;;;5017124;28;20057;-84
2023/11/19 03:07:13;;;;;;;3.17;2.50;;;-1.20;99.90;;;;;;5026886;28;20045;-83
2023/11/19 03:09:40;;;;;;;2.83;2.53;;;-1.10;99.90;;;;;;5028909;28;20487;-84
2023/11/19 03:12:08;;;;;;;4.90;2.92;;;-1.10;99.90;;;;;;5013097;28;20736;-83
2023/11/19 03:14:35;;;;;;;3.55;2.25;;;-1.00;99.90;;;;;;5025560;28;20049;-84
2023/11/19 03:17:03;;;;;;;3.30;2.70;;;-1.00;99.90;;;;;;5016710;28;20957;-84
2023/11/19 03:19:30;;;;;;;3.03;2.35;;;-1.00;99.90;;;;;;5027921;28;20049;-84
2023/11/19 03:21:58;;;;;;;2.78;2.30;;;-0.90;99.90;;;;;;5034381;28;20049;-84
2023/11/19 03:24:25;;;;;;;5.85;2.25;;;-0.90;99.90;;;;;;5011694;28;20274;-84
2023/11/19 03:26:52;;;;;;;2.50;2.30;;;-0.90;99.90;;;;;;5011865;28;20474;-84
2023/11/19 03:29:19;;;;;;;3.30;1.70;;;-0.80;99.90;;;;;;4999034;28;20475;-84
2023/11/19 03:31:45;;;;;;;2.63;1.77;;;-0.80;99.90;;;;;;5019438;28;20095;-84
2023/11/19 03:34:13;;;;;;;3.15;2.22;;;-0.80;99.90;;;;;;5027493;28;20053;-84
2023/11/19 03:36:40;;;;;;;2.92;2.10;;;-0.80;99.90;;;;;;5019918;28;20975;-84
2023/11/19 03:39:07;;;;;;;2.92;2.35;;;-0.80;99.90;;;;;;5025309;28;20054;-84
2023/11/19 03:41:34;;;;;;;2.10;1.58;;;-0.70;99.90;;;;;;5024262;28;20045;-84
2023/11/19 03:44:04;;;;;;;2.15;1.67;;;-0.70;99.90;;;;;;5012346;28;20044;-84
2023/11/19 03:46:30;;;;;;;2.35;1.52;;;-0.70;99.90;;;;;;5007849;28;20487;-84
2023/11/19 03:48:58;;;;;;;3.13;1.92;;;-0.70;99.90;;;;;;5028345;28;20053;-84
2023/11/19 03:51:25;;;;;;;6.85;1.95;;;-0.70;99.90;;;;;;5007181;28;20095;-84
2023/11/19 03:53:52;;;;;;;2.03;1.05;;;-0.70;99.90;;;;;;5007516;28;20125;-84
2023/11/19 03:56:20;;;;;;;3.17;1.55;;;-0.70;99.90;;;;;;5026120;28;20494;-85
2023/11/19 03:58:47;;;;;;;1.60;1.50;;;-0.70;99.90;;;;;;5027654;28;20137;-84
2023/11/19 04:01:14;;;;;;;2.90;1.38;;;-0.70;99.90;;;;;;5014045;28;20037;-84
2023/11/19 04:03:42;;;;;;;1.83;1.73;;;-0.70;99.90;;;;;;5016085;28;20045;-84
2023/11/19 04:06:11;;;;;;;1.88;1.60;;;-0.70;99.90;;;;;;5023784;28;20040;-85
2023/11/19 04:08:38;;;;;;;1.52;1.40;;;-0.60;99.90;;;;;;5027369;28;20041;-83
2023/11/19 04:11:05;;;;;;;2.47;1.75;;;-0.70;99.90;;;;;;5023294;28;20397;-85
2023/11/19 04:13:32;;;;;;;2.67;1.88;;;-0.60;99.90;;;;;;5043363;28;20416;-84
2023/11/19 04:16:01;;;;;;;2.20;1.63;;;-0.60;99.90;;;;;;5054957;28;20037;-84
2023/11/19 04:18:28;;;;;;;2.30;2.03;;;-0.60;99.90;;;;;;5057289;28;20041;-84
2023/11/19 04:20:55;;;;;;;2.15;1.92;;;-0.60;99.90;;;;;;5052243;28;20045;-84
2023/11/19 04:23:22;;;;;;;2.33;1.70;;;-0.60;99.90;;;;;;5057104;28;20044;-83
2023/11/19 04:25:49;;;;;;;1.70;1.08;;;-0.60;99.90;;;;;;5042767;28;20063;-83
2023/11/19 04:28:15;;;;;;;2.58;1.63;;;-0.60;99.90;;;;;;5058655;28;20060;-84
2023/11/19 04:30:44;;;;;;;4.95;1.95;;;-0.60;99.90;;;;;;5054479;28;20052;-84
2023/11/19 04:33:11;;;;;;;1.80;1.55;;;-0.60;99.90;;;;;;5051136;28;20033;-84
2023/11/19 04:35:38;;;;;;;1.77;1.38;;;-0.60;99.90;;;;;;5054789;28;20527;-84
2023/11/19 04:38:05;;;;;;;2.72;2.00;;;-0.60;99.90;;;;;;5050457;28;20105;-83
2023/11/19 04:40:33;;;;;;;2.40;1.45;;;-0.60;99.90;;;;;;5057585;28;20116;-84
2023/11/19 04:43:00;;;;;;;3.42;1.95;;;-0.60;99.90;;;;;;5055103;28;20045;-84
2023/11/19 04:45:27;;;;;;;2.55;2.20;;;-0.60;99.90;;;;;;5050336;28;20072;-83
2023/11/19 04:47:54;;;;;;;2.55;1.90;;;-0.60;99.90;;;;;;5057608;28;20052;-84
2023/11/19 04:50:21;;;;;;;2.30;2.10;;;-0.60;99.90;;;;;;5037096;28;20157;-83
2023/11/19 04:52:48;;;;;;;2.47;2.25;;;-0.60;99.90;;;;;;5056440;28;20041;-84
2023/11/19 04:55:15;;;;;;;2.47;1.80;;;-0.60;99.90;;;;;;5058030;28;20121;-84
2023/11/19 04:57:42;;;;;;;2.25;1.48;;;-0.60;99.90;;;;;;5045221;28;20045;-84
2023/11/19 05:00:11;;;;;;;3.22;2.33;;;-0.60;99.90;;;;;;5050415;28;20052;-84
2023/11/19 05:02:41;;;;;;;3.28;2.63;;;-0.60;99.90;;;;;;5052995;28;20032;-84
2023/11/19 05:05:09;;;;;;;2.40;2.20;;;-0.60;99.90;;;;;;5053052;28;20829;-84
2023/11/19 05:07:36;;;;;;;2.28;1.73;;;-0.60;99.90;;;;;;5055691;28;20029;-84
2023/11/19 05:10:05;;;;;;;2.65;2.28;;;-0.60;99.90;;;;;;5051866;28;20040;-85
2023/11/19 05:12:32;;;;;;;2.65;1.83;;;-0.60;99.90;;;;;;5061207;28;20103;-84
2023/11/19 05:14:59;;;;;;;3.55;2.20;;;-0.50;99.90;;;;;;5053549;28;20044;-83
2023/11/19 05:17:26;;;;;;;3.17;2.10;;;-0.60;99.90;;;;;;5054326;28;20049;-83
2023/11/19 05:19:53;;;;;;;2.50;2.20;;;-0.60;99.90;;;;;;5052168;28;20043;-84
2023/11/19 05:22:20;;;;;;;2.85;2.22;;;-0.50;99.90;;;;;;5055809;28;20045;-84
2023/11/19 05:24:49;;;;;;;4.15;2.72;;;-0.50;99.90;;;;;;5030543;28;20041;-83
2023/11/19 05:27:16;;;;;;;3.10;2.30;;;-0.50;99.90;;;;;;5025227;28;20102;-83
2023/11/19 05:29:43;;;;;;;3.60;3.10;;;-0.50;99.90;;;;;;5030449;28;20071;-82
2023/11/19 05:32:11;;;;;;;5.70;2.90;;;-0.50;99.90;;;;;;5029976;28;20144;-83
2023/11/19 05:34:38;;;;;;;3.50;2.33;;;-0.50;99.90;;;;;;5018995;28;20044;-84
2023/11/19 05:37:18;;;;;;;4.38;3.58;;;-0.50;99.90;;;;;;5004251;28;20045;-83
2023/11/19 05:39:45;;;;;;;4.38;2.50;;;-0.40;99.90;;;;;;5030058;28;20048;-83
2023/11/19 05:42:12;;;;;;;4.40;3.47;;;-0.40;99.90;;;;;;5028424;28;20403;-83
2023/11/19 05:44:39;;;;;;;4.82;3.72;;;-0.40;99.90;;;;;;5027834;28;20111;-83
2023/11/19 05:47:07;;;;;;;4.70;3.70;;;-0.30;99.90;;;;;;5027757;28;20530;-83
2023/11/19 05:49:35;;;;;;;4.57;3.38;;;-0.20;99.90;;;;;;5027661;28;20046;-83
2023/11/19 05:52:03;;;;;;;4.20;3.28;;;-0.10;99.90;;;;;;5027879;28;20529;-83
2023/11/19 05:54:31;;;;;;;3.60;3.10;;;-0.10;99.90;;;;;;5029933;28;20088;-83
2023/11/19 05:56:58;;;;;;;4.65;3.60;;;-0.10;99.90;;;;;;5031044;28;20063;-83
2023/11/19 05:59:25;;;;;;;4.70;4.03;;;-0.10;99.90;;;;;;5028543;28;20468;-83
2023/11/19 06:01:52;;;;;;;4.80;3.58;;;0.00;99.90;;;;;;5028909;28;20549;-84
2023/11/19 06:04:19;;;;;;;3.92;3.00;;;0.00;99.90;;;;;;5037363;28;20136;-83
2023/11/19 06:06:46;;;;;;;3.78;3.13;;;0.10;99.90;;;;;;5031313;28;20053;-83
2023/11/19 06:09:13;;;;;;;4.53;3.80;;;0.10;99.90;;;;;;5026532;28;20540;-83
2023/11/19 06:11:40;;;;;;;4.70;2.92;;;0.20;99.90;;;;;;5025296;28;20045;-83
2023/11/19 06:14:07;;;;;;;4.82;3.40;;;0.20;99.90;;;;;;5027287;28;20572;-83
2023/11/19 06:16:34;;;;;;;7.90;3.80;;;0.20;99.90;;;;;;5031087;28;20103;-83
2023/11/19 06:19:01;;;;;;;4.07;3.67;;;0.30;99.90;;;;;;5026062;28;20565;-83
2023/11/19 06:21:29;;;;;;;4.95;3.95;;;0.30;99.90;;;;;;5023034;28;20495;-83
2023/11/19 06:23:56;;;;;;;3.60;3.20;;;0.40;99.90;;;;;;5028942;28;20045;-83
2023/11/19 06:26:23;;;;;;;5.35;3.10;;;0.40;99.90;;;;;;5031249;28;20549;-83
2023/11/19 06:28:50;;;;;;;4.72;3.40;;;0.40;99.90;;;;;;5034491;28;20045;-84
2023/11/19 06:31:17;;;;;;;4.30;2.92;;;0.50;99.90;;;;;;5004082;28;20092;-84
2023/11/19 06:33:44;;;;;;;6.05;3.17;;;0.50;99.90;;;;;;5021707;28;20049;-84
2023/11/19 06:36:16;;;;;;;5.47;3.38;;;0.60;99.90;;;;;;5019231;28;20045;-83
2023/11/19 06:38:43;;;;;;;5.80;3.65;;;0.60;99.90;;;;;;5015151;28;20073;-84
2023/11/19 06:41:10;;;;;;;3.42;3.13;;;0.60;99.90;;;;;;5015857;28;20043;-84
2023/11/19 06:43:37;;;;;;;4.57;2.92;;;0.60;99.90;;;;;;5011077;28;20042;-83
2023/11/19 06:46:17;;;;;;;3.65;2.88;;;0.60;99.90;;;;;;5011579;28;20041;-83
2023/11/19 06:48:45;;;;;;;3.88;3.25;;;0.70;99.90;;;;;;5031632;28;20061;-83
2023/11/19 06:51:12;;;;;;;4.70;3.25;;;0.70;99.90;;;;;;5021477;28;20510;-83
2023/11/19 06:53:40;;;;;;;4.57;2.65;;;0.70;99.90;;;;;;5026362;28;20044;-84
2023/11/19 06:56:21;;;;;;;3.40;2.58;;;0.80;99.90;;;;;;5024998;28;20076;-83
2023/11/19 06:58:49;;;;;;;5.47;2.80;;;0.80;99.90;;;;;;5029610;28;20064;-83
2023/11/19 07:01:17;;;;;;;4.00;3.13;;;0.80;99.90;;;;;;5012210;28;20041;-83
2023/11/19 07:03:48;;;;;;;4.85;3.53;;;0.80;99.90;;;;;;5019810;28;20099;-83
2023/11/19 07:06:15;;;;;;;3.95;2.88;;;0.90;99.90;;;;;;5005029;28;20046;-83
2023/11/19 07:08:46;;;;;;;4.30;3.25;;;0.80;99.90;;;;;;5023681;28;20045;-84
2023/11/19 07:11:15;;;;;;;3.70;2.53;;;0.80;99.90;;;;;;5001468;28;20054;-83
2023/11/19 07:13:43;;;;;;;4.22;3.10;;;0.80;99.90;;;;;;5023595;28;20131;-83
2023/11/19 07:16:10;;;;;;;3.13;2.80;;;0.80;99.90;;;;;;5023133;28;20079;-83
2023/11/19 07:18:37;;;;;;;6.00;4.13;;;0.80;99.90;;;;;;5005133;28;20053;-84
2023/11/19 07:21:04;;;;;;;4.22;3.53;;;0.90;99.90;;;;;;5007511;28;20604;-83
2023/11/19 07:23:34;;;;;;;4.35;2.90;;;0.90;99.90;;;;;;5013051;28;20041;-84
2023/11/19 07:26:01;;;;;;;3.97;2.90;;;0.90;99.90;;;;;;4988735;28;20132;-83
2023/11/19 07:28:28;;;;;;;4.30;2.75;;;1.00;99.90;;;;;;5020278;28;20050;-84
2023/11/19 07:30:58;;;;;;;4.32;3.75;;;1.00;99.90;;;;;;5009895;28;20053;-84
2023/11/19 07:33:25;;;;;;;3.97;2.75;;;1.10;99.90;;;;;;5006151;28;20414;-84
2023/11/19 07:35:52;;;;;;;3.95;3.33;;;1.10;99.90;;;;;;5023212;28;20475;-84
2023/11/19 07:38:19;;;;;;;5.57;3.42;;;1.10;99.90;;;;;;5025345;28;20125;-84
2023/11/19 07:40:47;;;;;;;4.00;3.47;;;1.10;99.90;;;;;;4989843;28;20045;-84
2023/11/19 07:43:20;;;;;;;3.67;3.33;;;1.20;99.90;;;;;;5010487;28;20052;-84
2023/11/19 07:45:47;;;;;;;3.95;3.20;;;1.20;99.90;;;;;;5009357;28;20179;-84
2023/11/19 07:48:15;;;;;;;6.10;3.20;;;1.20;99.90;;;;;;5013230;28;20050;-84
2023/11/19 07:50:42;;;;;;;6.13;3.17;;;1.30;99.90;;;;;;5011067;28;20052;-84
2023/11/19 07:53:09;;;;;;;4.70;2.85;;;1.30;99.90;;;;;;5026994;28;20041;-84
2023/11/19 07:55:36;;;;;;;4.05;2.60;;;1.40;99.90;;;;;;5011951;28;20045;-84
2023/11/19 07:58:08;;;;;;;4.43;3.60;;;1.40;99.90;;;;;;5028294;28;20033;-85
2023/11/19 08:00:35;;;;;;;4.40;3.15;;;1.40;99.90;;;;;;5026765;28;20045;-84
2023/11/19 08:03:02;;;;;;;4.35;3.10;;;1.50;99.90;;;;;;5014185;28;20041;-83
2023/11/19 08:05:30;;;;;;;4.10;3.15;;;1.50;99.90;;;;;;5024454;28;20103;-85
2023/11/19 08:07:58;;;;;;;3.55;2.35;;;1.60;99.90;;;;;;5024814;28;20096;-83
2023/11/19 08:10:25;;;;;;;4.95;3.30;;;1.60;99.90;;;;;;4998219;28;20411;-84
2023/11/19 08:12:52;;;;;;;9.23;3.47;;;1.70;99.90;;;;;;5020773;28;20146;-84
2023/11/19 08:15:19;;;;;;;3.08;2.78;;;1.70;99.90;;;;;;5029165;28;20045;-84
2023/11/19 08:17:58;;;;;;;10.73;3.65;;;1.80;99.90;;;;;;5026709;28;20056;-83
2023/11/19 08:20:25;;;;;;;7.88;3.50;;;1.80;99.90;;;;;;5025098;28;20500;-85
2023/11/19 08:22:52;;;;;;;4.65;3.20;;;1.90;99.90;;;;;;5025431;28;20037;-83
2023/11/19 08:25:19;;;;;;;5.65;4.00;;;1.90;99.90;;;;;;5032825;28;20186;-83
2023/11/19 08:27:46;;;;;;;4.97;3.28;;;1.90;99.90;;;;;;5012862;28;20070;-84
2023/11/19 08:30:13;;;;;;;7.10;3.97;;;2.00;99.90;;;;;;4995705;28;20052;-84
2023/11/19 08:32:41;;;;;;;6.07;3.33;;;2.00;99.90;;;;;;5036108;28;20032;-84
2023/11/19 08:35:08;;;;;;;4.35;3.20;;;2.00;99.90;;;;;;5028398;28;20072;-84
2023/11/19 08:37:36;;;;;;;6.15;4.00;;;2.00;99.90;;;;;;5027554;28;20057;-83
2023/11/19 08:40:04;;;;;;;4.13;3.05;;;2.00;99.90;;;;;;5012670;28;20069;-84
2023/11/19 08:42:31;;;;;;;5.10;3.40;;;2.00;99.90;;;;;;5015100;28;20056;-85
2023/11/19 08:44:58;;;;;;;5.60;3.63;;;2.00;99.90;;;;;;5026405;28;20045;-84
2023/11/19 08:47:25;;;;;;;4.57;2.90;;;2.00;99.90;;;;;;5034292;28;20045;-85
2023/11/19 08:49:53;;;;;;;5.88;3.45;;;2.00;99.90;;;;;;5026988;28;20542;-85
2023/11/19 08:52:22;;;;;;;4.43;3.42;;;2.00;99.90;;;;;;5015521;28;20451;-85
2023/11/19 08:54:49;;;;;;;5.20;3.08;;;2.00;99.90;;;;;;5045244;28;20057;-85
2023/11/19 08:57:16;;;;;;;3.60;2.53;;;2.00;99.90;;;;;;5045783;28;20049;-85
2023/11/19 08:59:45;;;;;;;3.50;2.58;;;2.00;99.90;;;;;;5047244;28;20046;-85
2023/11/19 09:02:13;;;;;;;5.32;3.47;;;2.00;99.90;;;;;;5035806;28;20154;-86
2023/11/19 09:04:40;;;;;;;6.35;3.05;;;2.00;99.90;;;;;;5050570;28;20091;-85
2023/11/19 09:07:09;;;;;;;4.45;3.47;;;2.00;99.90;;;;;;5051868;28;20033;-85
2023/11/19 09:09:36;;;;;;;3.05;2.55;;;2.00;99.90;;;;;;5025284;28;20045;-85
2023/11/19 09:12:04;;;;;;;4.97;3.33;;;2.00;99.90;;;;;;5036153;28;20033;-85
2023/11/19 09:14:31;;;;;;;6.03;4.88;;;2.00;99.90;;;;;;5048985;28;20635;-85
2023/11/19 09:16:58;;;;;;;7.15;6.13;;;2.00;99.90;;;;;;5024070;28;20030;-87
2023/11/19 09:19:26;;;;;;;9.30;8.48;;;2.00;99.90;;;;;;5036956;28;20045;-85
2023/11/19 09:21:53;;;;;;;6.88;6.28;;;2.00;99.90;;;;;;5035868;28;20068;-86
2023/11/19 09:24:20;;;;;;;5.75;4.82;;;2.00;99.90;;;;;;5045638;28;20133;-86
2023/11/19 09:26:47;;;;;;;5.05;3.85;;;2.10;99.90;;;;;;5042331;28;20061;-85
2023/11/19 09:29:14;;;;;;;4.68;3.22;;;2.10;99.90;;;;;;5050233;28;20025;-86
2023/11/19 09:31:42;;;;;;;4.10;3.35;;;2.10;99.90;;;;;;5045316;28;20041;-87
2023/11/19 09:34:09;;;;;;;5.38;3.38;;;2.10;99.90;;;;;;5052332;28;20109;-85
2023/11/19 09:36:36;;;;;;;6.03;3.83;;;2.10;99.90;;;;;;5049527;28;20026;-85
2023/11/19 09:39:04;;;;;;;5.63;4.15;;;2.10;99.90;;;;;;5056341;28;20034;-86
2023/11/19 09:41:32;;;;;;;5.82;4.22;;;2.20;99.90;;;;;;5047137;28;20057;-86
2023/11/19 09:44:00;;;;;;;5.03;3.67;;;2.20;99.90;;;;;;5043061;28;20049;-85
2023/11/19 09:46:28;;;;;;;7.05;4.13;;;2.30;99.90;;;;;;5050900;28;20034;-85
2023/11/19 09:48:57;;;;;;;7.22;4.05;;;2.30;99.90;;;;;;5049125;28;20076;-87
2023/11/19 09:51:24;;;;;;;6.20;4.45;;;2.30;99.90;;;;;;5049274;28;20049;-86
2023/11/19 09:53:52;;;;;;;8.30;4.78;;;2.40;99.90;;;;;;5052550;28;20128;-85
2023/11/19 09:56:19;;;;;;;6.30;4.10;;;2.40;99.90;;;;;;5028038;28;20053;-86
2023/11/19 09:58:46;;;;;;;4.63;3.95;;;2.50;99.90;;;;;;5045786;28;20076;-87
2023/11/19 10:01:14;;;;;;;7.25;4.53;;;2.50;99.90;;;;;;5047255;28;20056;-86
2023/11/19 10:03:46;;;;;;;;;;;2.60;99.90;;;;;;5045093;28;20398;-85
2023/11/19 10:06:14;;;;;;;8.20;4.38;;;2.60;99.90;;;;;;5024224;28;20266;-86
2023/11/19 10:08:43;;;;;;;5.03;4.50;;;2.70;99.90;;;;;;5023255;28;20533;-86
2023/11/19 10:11:13;;;;;;;7.25;5.35;;;2.80;99.90;;;;;;5029438;28;20041;-87
2023/11/19 10:13:42;;;;;;;;;;;2.80;99.90;;;;;;5029307;28;20052;-86
2023/11/19 10:16:12;;;;;;;7.45;3.50;;;2.90;99.90;;;;;;5028262;28;19927;-86
2023/11/19 10:18:52;;;;;;;11.40;4.65;;;2.90;99.90;;;;;;5027623;28;20041;-86
2023/11/19 10:21:19;;;;;;;5.93;4.65;;;3.00;99.90;;;;;;5023066;28;20569;-86
2023/11/19 10:23:56;;;;;;;6.32;4.78;;;3.10;99.90;;;;;;5032657;28;20068;-86
2023/11/19 10:26:23;;;;;;;6.68;5.63;;;3.10;99.90;;;;;;5044794;28;20081;-86
2023/11/19 10:28:50;;;;;;;7.05;5.18;;;3.20;99.90;;;;;;5023047;28;20044;-86
2023/11/19 10:31:19;;;;;;;9.50;5.22;;;3.30;99.90;;;;;;5030795;28;20072;-87
2023/11/19 10:33:47;;;;;;;7.38;5.07;;;3.30;99.90;;;;;;5029278;28;20128;-86
2023/11/19 10:36:14;;;;;;;7.47;5.22;;;3.40;99.90;;;;;;5035576;28;20050;-86
2023/11/19 10:38:55;;;;;;;7.65;5.03;;;3.50;99.90;;;;;;5033102;28;20076;-86
2023/11/19 10:41:31;;;;;;;;;;;3.50;99.90;;;;;;5028848;28;20052;-87
2023/11/19 10:43:59;;;;;;;6.03;4.10;;;3.60;99.90;;;;;;5028787;28;20019;-86
2023/11/19 10:46:43;;;;;;;7.05;4.82;;;3.60;99.90;;;;;;5030275;28;20033;-86
2023/11/19 10:49:10;;;;;;;5.97;4.22;;;3.70;99.90;;;;;;5025917;28;20041;-86
2023/11/19 10:51:46;;;;;;;5.43;4.20;;;3.70;99.90;;;;;;5030852;28;20405;-86
2023/11/19 10:54:17;;;;;;;6.45;4.93;;;3.70;99.90;;;;;;5028466;28;20049;-86
2023/11/19 10:56:47;;;;;;;6.22;4.65;;;3.70;99.90;;;;;;5025116;28;20049;-86
2023/11/19 10:59:16;;;;;;;8.60;5.00;;;3.70;99.90;;;;;;5018028;28;20110;-87
2023/11/19 11:01:50;;;;;;;6.35;4.93;;;3.80;99.90;;;;;;5026360;28;20069;-86
2023/11/19 11:04:24;;;;;;;9.40;5.78;;;3.80;99.90;;;;;;5010606;28;20037;-86
2023/11/19 11:06:51;;;;;;;9.77;5.53;;;3.70;99.90;;;;;;5029738;28;20045;-86
2023/11/19 11:09:18;;;;;;;9.82;6.80;;;3.80;99.90;;;;;;5027859;28;20041;-87
2023/11/19 11:11:51;;;;;;;12.70;6.85;;;3.80;99.90;;;;;;5033254;28;20068;-86
2023/11/19 11:14:22;;;;;;;10.18;7.00;;;3.80;99.90;;;;;;5034190;28;20045;-87
2023/11/19 11:16:49;;;;;;;12.75;9.05;;;3.90;99.90;;;;;;5033485;28;20117;-88
2023/11/19 11:19:18;;;;;;;10.32;6.68;;;3.90;99.90;;;;;;5031339;28;20145;-90
2023/11/19 11:21:51;;;;;;;10.73;6.55;;;3.90;99.90;;;;;;5038751;28;20155;-89
2023/11/19 11:24:23;;;;;;;8.00;6.10;;;3.90;99.90;;;;;;5033929;28;20045;-88
2023/11/19 11:27:22;;;;;;;7.10;5.30;;;3.90;99.90;;;;;;5034767;28;20064;-88
2023/11/19 11:30:10;;;;;;;8.30;6.28;;;4.00;99.90;;;;;;5041616;28;20072;-88
2023/11/19 11:32:49;;;;;;;9.18;5.70;;;4.00;99.90;;;;;;5030763;28;20042;-87
2023/11/19 11:35:27;;;;;;;6.63;5.93;;;4.00;99.90;;;;;;5031581;28;20133;-85
2023/11/19 11:38:07;;;;;;;6.70;5.30;;;4.10;99.90;;;;;;5033827;28;20095;-89
2023/11/19 11:40:35;;;;;;;7.82;5.90;;;4.00;99.90;;;;;;5028915;28;20046;-87
2023/11/19 11:43:05;;;;;;;6.85;4.75;;;4.10;99.90;;;;;;5037968;28;20496;-86
2023/11/19 11:45:39;;;;;;;5.90;4.22;;;4.10;99.90;;;;;;5031577;28;20533;-88
2023/11/19 11:48:19;;;;;;;7.45;5.25;;;4.10;99.90;;;;;;5041724;28;20041;-87
2023/11/19 11:50:54;;;;;;;5.63;4.57;;;4.10;99.90;;;;;;5037508;28;20453;-90
2023/11/19 11:53:24;;;;;;;8.20;5.47;;;4.00;99.90;;;;;;5037153;28;20045;-88
2023/11/19 11:55:51;;;;;;;7.73;5.80;;;4.10;99.90;;;;;;5035242;28;20052;-90
2023/11/19 11:58:37;;;;;;;7.75;4.80;;;4.10;99.90;;;;;;5032430;28;20101;-89
2023/11/19 12:01:07;;;;;;;13.77;6.80;;;4.10;99.90;;;;;;5032059;28;20522;-90
2023/11/19 12:03:37;;;;;;;6.75;5.28;;;4.10;99.90;;;;;;5035072;28;20042;-90
2023/11/19 12:06:04;;;;;;;7.60;5.97;;;4.10;99.90;;;;;;5027394;28;20096;-89
2023/11/19 12:08:35;;;;;;;5.15;4.65;;;4.10;99.90;;;;;;5037564;28;20190;-88
2023/11/19 12:11:19;;;;;;;4.97;3.38;;;4.10;99.90;;;;;;5043493;28;20045;-88
2023/11/19 12:14:02;;;;;;;4.95;4.45;;;4.10;99.90;;;;;;5039831;28;20099;-88
2023/11/19 12:16:30;;;;;;;5.85;4.82;;;4.10;99.90;;;;;;5038471;28;20041;-91
2023/11/19 12:19:05;;;;;;;5.07;4.22;;;4.10;99.90;;;;;;5032756;28;20222;-88
2023/11/19 12:21:32;;;;;;;4.97;3.30;;;4.10;99.90;;;;;;5036201;28;20072;-90
2023/11/19 12:24:07;;;;;;;4.18;3.15;;;4.10;99.90;;;;;;5036637;28;20049;-90
2023/11/19 12:26:38;;;;;;;5.18;3.78;;;4.10;99.90;;;;;;5031787;28;20128;-87
2023/11/19 12:29:06;;;;;;;5.40;4.07;;;4.10;99.90;;;;;;5011678;28;20056;-87
2023/11/19 12:31:35;;;;;;;6.85;4.25;;;4.10;99.90;;;;;;5014425;28;20038;-86
2023/11/19 12:34:06;;;;;;;3.88;3.50;;;4.10;99.90;;;;;;5016143;28;20037;-86
2023/11/19 12:36:34;;;;;;;4.63;4.07;;;4.10;99.90;;;;;;5011573;28;20630;-87
2023/11/19 12:39:02;;;;;;;5.65;4.15;;;4.10;99.90;;;;;;4996166;28;20131;-86
2023/11/19 12:41:29;;;;;;;4.35;3.35;;;4.10;99.90;;;;;;5034008;28;20056;-88
2023/11/19 12:44:09;;;;;;;3.65;3.30;;;4.10;99.90;;;;;;5014795;28;20034;-87
2023/11/19 12:46:36;;;;;;;;;;;4.10;99.90;;;;;;5033584;28;20029;-87
2023/11/19 12:49:05;;;;;;;5.20;3.42;;;4.10;99.90;;;;;;5000880;28;19924;-86
2023/11/19 12:51:33;;;;;;;4.30;2.83;;;4.00;99.90;;;;;;5011884;28;20115;-87
2023/11/19 12:54:00;;;;;;;3.20;2.90;;;4.10;99.90;;;;;;5031861;28;20071;-87
2023/11/19 12:56:27;;;;;;;3.95;3.30;;;4.10;99.90;;;;;;4994552;28;20144;-86
2023/11/19 12:58:54;;;;;;;5.18;3.00;;;4.00;99.90;;;;;;5013996;28;20372;-86
2023/11/19 13:01:21;;;;;;;5.20;2.83;;;4.00;99.90;;;;;;5023359;28;20538;-86